Time;durP1;ratioP1;P1;durP2;ratioP2;P2;SDS_P1;SDS_P2;PMS_P1;PMS_P2;Temp;Humidity;BMP_temperature;BMP_pressure;BME280_temperature;BME280_humidity;BME280_pressure;Samples;Min_cycle;Max_cycle;Signal;HPM_P1;HPM_P2
2023/12/10 00:02:05;;;;;;;110.82;79.32;;;5.70;99.90;;;;;;4968810;28;20030;-74
2023/12/10 00:04:31;;;;;;;100.25;69.68;;;5.70;99.90;;;;;;4964074;28;20485;-74
2023/12/10 00:06:56;;;;;;;112.75;78.80;;;5.70;99.90;;;;;;4966657;28;20034;-74
2023/12/10 00:09:22;;;;;;;124.07;83.32;;;5.70;99.90;;;;;;4965855;28;20547;-74
2023/12/10 00:11:48;;;;;;;99.70;72.60;;;5.70;99.90;;;;;;4962707;28;20381;-74
2023/12/10 00:14:13;;;;;;;103.53;74.50;;;5.70;99.90;;;;;;4964755;28;20026;-74
2023/12/10 00:16:39;;;;;;;114.50;77.70;;;5.70;99.90;;;;;;4964863;28;20501;-75
2023/12/10 00:19:05;;;;;;;100.15;70.68;;;5.70;99.90;;;;;;4965154;28;20653;-74
2023/12/10 00:21:31;;;;;;;108.93;75.95;;;5.70;99.90;;;;;;4964136;28;20030;-74
2023/12/10 00:23:56;;;;;;;109.45;75.80;;;5.70;99.90;;;;;;4964339;28;20035;-74
2023/12/10 00:26:22;;;;;;;102.32;72.80;;;5.70;99.90;;;;;;4964918;28;20018;-74
2023/12/10 00:28:48;;;;;;;118.22;79.47;;;5.70;99.90;;;;;;4964798;28;20054;-74
2023/12/10 00:31:13;;;;;;;101.57;71.32;;;5.70;99.90;;;;;;4966365;28;20528;-75
2023/12/10 00:33:39;;;;;;;104.15;77.00;;;5.70;99.90;;;;;;4967137;28;20528;-75
2023/12/10 00:36:05;;;;;;;119.90;82.07;;;5.70;99.90;;;;;;4963928;28;20078;-74
2023/12/10 00:38:31;;;;;;;126.47;84.55;;;5.60;99.90;;;;;;4963426;28;20489;-74
2023/12/10 00:40:57;;;;;;;116.43;82.07;;;5.50;99.90;;;;;;4963354;28;20033;-74
2023/12/10 00:43:22;;;;;;;143.02;90.25;;;5.50;99.90;;;;;;4964617;28;20150;-74
2023/12/10 00:45:48;;;;;;;115.43;79.18;;;5.50;99.90;;;;;;4963844;28;20022;-74
2023/12/10 00:48:14;;;;;;;114.05;78.25;;;5.50;99.90;;;;;;4965903;28;20106;-74
2023/12/10 00:50:40;;;;;;;112.45;79.60;;;5.60;99.90;;;;;;4964154;28;20070;-74
2023/12/10 00:53:05;;;;;;;138.25;86.90;;;5.60;99.90;;;;;;4964039;28;20493;-74
2023/12/10 00:55:31;;;;;;;113.78;79.85;;;5.60;99.90;;;;;;4964867;28;20031;-74
2023/12/10 00:57:57;;;;;;;118.07;82.75;;;5.60;99.90;;;;;;4963799;28;20441;-74
2023/12/10 01:00:22;;;;;;;129.35;85.78;;;5.60;99.90;;;;;;4946813;28;20038;-74
2023/12/10 01:02:49;;;;;;;125.55;82.85;;;5.60;99.90;;;;;;4965507;28;20144;-75
2023/12/10 01:05:15;;;;;;;120.00;80.10;;;5.60;99.90;;;;;;4964715;28;20498;-74
2023/12/10 01:07:40;;;;;;;128.50;84.28;;;5.60;99.90;;;;;;4968894;28;20023;-74
2023/12/10 01:10:07;;;;;;;129.80;83.30;;;5.60;99.90;;;;;;4967755;28;20039;-74
2023/12/10 01:12:36;;;;;;;137.32;85.13;;;5.60;99.90;;;;;;4956524;28;20035;-74
2023/12/10 01:15:05;;;;;;;117.95;81.65;;;5.50;99.90;;;;;;4962730;28;20147;-74
2023/12/10 01:17:31;;;;;;;116.93;79.20;;;5.60;99.90;;;;;;4966541;28;20472;-74
2023/12/10 01:19:59;;;;;;;131.57;86.85;;;5.60;99.90;;;;;;4963221;28;20031;-74
2023/12/10 01:22:24;;;;;;;135.30;86.32;;;5.60;99.90;;;;;;4952634;28;20034;-74
2023/12/10 01:24:52;;;;;;;155.55;90.80;;;5.60;99.90;;;;;;4967338;28;20027;-74
2023/12/10 01:27:18;;;;;;;118.60;78.10;;;5.60;99.90;;;;;;4968971;28;20034;-75
2023/12/10 01:29:44;;;;;;;114.13;76.97;;;5.60;99.90;;;;;;4961085;28;20042;-74
2023/12/10 01:32:10;;;;;;;111.47;76.40;;;5.60;99.90;;;;;;4954544;28;20050;-74
2023/12/10 01:34:37;;;;;;;128.00;89.28;;;5.60;99.90;;;;;;4964474;28;20114;-74
2023/12/10 01:37:03;;;;;;;113.57;81.53;;;5.70;99.90;;;;;;4964271;28;20031;-74
2023/12/10 01:39:30;;;;;;;119.30;84.32;;;5.70;99.90;;;;;;4949384;28;20121;-74
2023/12/10 01:41:56;;;;;;;108.32;76.05;;;5.70;99.90;;;;;;4965173;28;20058;-75
2023/12/10 01:44:22;;;;;;;100.35;69.68;;;5.70;99.90;;;;;;4964949;28;20058;-74
2023/12/10 01:46:48;;;;;;;97.80;70.60;;;5.70;99.90;;;;;;4964971;28;20528;-74
2023/12/10 01:49:16;;;;;;;97.85;70.22;;;5.70;99.90;;;;;;4960931;28;20031;-75
2023/12/10 01:51:44;;;;;;;100.45;70.30;;;5.70;99.90;;;;;;4965150;28;20027;-74
2023/12/10 01:54:22;;;;;;;95.22;69.72;;;5.70;99.90;;;;;;4961112;28;20506;-74
2023/12/10 01:56:51;;;;;;;93.43;68.07;;;5.80;99.90;;;;;;4964641;28;20045;-74
2023/12/10 01:59:19;;;;;;;99.60;70.95;;;5.70;99.90;;;;;;4963859;28;20027;-74
2023/12/10 02:01:48;;;;;;;98.10;69.32;;;5.70;99.90;;;;;;4957639;28;20031;-75
2023/12/10 02:04:17;;;;;;;93.53;67.22;;;5.70;99.90;;;;;;4964318;28;20031;-74
2023/12/10 02:06:44;;;;;;;108.40;73.40;;;5.70;99.90;;;;;;4975293;28;20023;-74
2023/12/10 02:09:12;;;;;;;90.05;64.95;;;5.70;99.90;;;;;;4967436;28;20030;-74
2023/12/10 02:11:41;;;;;;;93.90;67.85;;;5.70;99.90;;;;;;4968343;28;20043;-75
2023/12/10 02:14:07;;;;;;;92.53;68.15;;;5.80;99.90;;;;;;4966807;28;20030;-75
2023/12/10 02:16:33;;;;;;;111.35;73.75;;;5.80;99.90;;;;;;4967686;28;20395;-75
2023/12/10 02:18:59;;;;;;;92.25;66.05;;;5.70;99.90;;;;;;4965319;28;20034;-75
2023/12/10 02:21:26;;;;;;;95.00;68.30;;;5.80;99.90;;;;;;4952662;28;20023;-75
2023/12/10 02:23:58;;;;;;;91.47;68.15;;;5.80;99.90;;;;;;4955278;28;20037;-75
2023/12/10 02:26:25;;;;;;;108.95;75.25;;;5.80;99.90;;;;;;4956117;28;20031;-75
2023/12/10 02:28:51;;;;;;;109.95;76.03;;;5.70;99.90;;;;;;4966187;28;20032;-75
2023/12/10 02:31:19;;;;;;;110.00;75.32;;;5.70;99.90;;;;;;4967435;28;20457;-75
2023/12/10 02:33:45;;;;;;;125.10;85.45;;;5.70;99.90;;;;;;4946308;29;20051;-74
2023/12/10 02:36:12;;;;;;;112.85;76.68;;;5.60;99.90;;;;;;4946844;28;20481;-75
2023/12/10 02:38:38;;;;;;;100.13;71.97;;;5.70;99.90;;;;;;4956766;28;20034;-75
2023/12/10 02:41:05;;;;;;;105.93;70.43;;;5.70;99.90;;;;;;4950803;28;20455;-75
2023/12/10 02:43:31;;;;;;;96.18;70.32;;;5.70;99.90;;;;;;4967506;28;20442;-75
2023/12/10 02:48:41;;;;;;;109.95;74.18;;;5.70;99.90;;;;;;4970633;28;20029;-75
2023/12/10 02:51:07;;;;;;;92.68;67.63;;;5.60;99.90;;;;;;4964980;28;20031;-75
2023/12/10 02:53:33;;;;;;;98.40;68.90;;;5.70;99.90;;;;;;4970369;28;20035;-75
2023/12/10 02:55:58;;;;;;;89.78;66.03;;;5.70;99.90;;;;;;4966239;28;20106;-75
2023/12/10 02:58:24;;;;;;;103.38;67.57;;;5.70;99.90;;;;;;4955089;28;20028;-75
2023/12/10 03:00:50;;;;;;;100.68;69.20;;;5.70;99.90;;;;;;4965415;28;20053;-75
2023/12/10 03:03:15;;;;;;;93.18;66.50;;;5.70;99.90;;;;;;4971046;28;20461;-75
2023/12/10 03:05:41;;;;;;;91.75;65.00;;;5.60;99.90;;;;;;4966042;28;20370;-75
2023/12/10 03:08:07;;;;;;;86.10;62.33;;;5.60;99.90;;;;;;4972758;28;20018;-75
2023/12/10 03:10:32;;;;;;;96.50;67.90;;;5.70;99.90;;;;;;4947732;28;20432;-74
2023/12/10 03:12:58;;;;;;;83.28;60.63;;;5.70;99.90;;;;;;4967154;28;20030;-75
2023/12/10 03:15:24;;;;;;;92.18;63.25;;;5.70;99.90;;;;;;4965003;28;20057;-75
2023/12/10 03:17:50;;;;;;;78.28;58.17;;;5.70;99.90;;;;;;4952848;28;20101;-75
2023/12/10 03:20:15;;;;;;;84.13;61.83;;;5.70;99.90;;;;;;4964120;28;20082;-75
2023/12/10 03:22:41;;;;;;;81.18;60.67;;;5.70;99.90;;;;;;4970324;28;20453;-75
2023/12/10 03:25:07;;;;;;;83.10;60.95;;;5.70;99.90;;;;;;4963592;28;20027;-74
2023/12/10 03:27:32;;;;;;;79.60;57.70;;;5.80;99.90;;;;;;4967754;28;20390;-74
2023/12/10 03:29:58;;;;;;;80.57;58.40;;;5.80;99.90;;;;;;4945543;28;20479;-74
2023/12/10 03:32:24;;;;;;;77.97;60.13;;;5.80;99.90;;;;;;4966490;28;20093;-74
2023/12/10 03:34:50;;;;;;;80.85;58.53;;;5.80;99.90;;;;;;4964061;28;20629;-75
2023/12/10 03:37:15;;;;;;;78.65;58.00;;;5.70;99.90;;;;;;4965764;28;20472;-75
2023/12/10 03:39:41;;;;;;;83.38;61.15;;;5.80;99.90;;;;;;4965458;28;20035;-75
2023/12/10 03:42:07;;;;;;;79.28;58.10;;;5.80;99.90;;;;;;4965815;28;20034;-75
2023/12/10 03:44:32;;;;;;;80.53;58.92;;;5.80;99.90;;;;;;4962947;28;20050;-74
2023/12/10 03:47:01;;;;;;;85.28;61.25;;;5.70;99.90;;;;;;4966319;28;20023;-75
2023/12/10 03:49:28;;;;;;;81.53;57.90;;;5.70;99.90;;;;;;4955638;28;20549;-75
2023/12/10 03:51:56;;;;;;;85.95;62.10;;;5.70;99.90;;;;;;4967291;28;20481;-75
2023/12/10 03:54:22;;;;;;;80.28;57.85;;;5.70;99.90;;;;;;4964141;28;20063;-75
2023/12/10 03:56:47;;;;;;;77.20;58.25;;;5.70;99.90;;;;;;4967849;28;20556;-75
2023/12/10 03:59:13;;;;;;;83.35;58.95;;;5.80;99.90;;;;;;4966083;28;20035;-75
2023/12/10 04:01:43;;;;;;;77.63;57.10;;;5.80;99.90;;;;;;4961013;28;20401;-74
2023/12/10 04:04:12;;;;;;;80.85;58.22;;;5.80;99.90;;;;;;4962209;28;20031;-74
2023/12/10 04:06:42;;;;;;;86.72;59.67;;;5.80;99.90;;;;;;4969436;28;20474;-74
2023/12/10 04:09:08;;;;;;;85.15;60.08;;;5.70;99.90;;;;;;4965137;28;20389;-75
2023/12/10 04:11:34;;;;;;;80.60;58.90;;;5.80;99.90;;;;;;4956828;28;20386;-74
2023/12/10 04:14:00;;;;;;;81.68;60.45;;;5.70;99.90;;;;;;4945253;28;20038;-75
2023/12/10 04:16:27;;;;;;;79.22;57.33;;;5.80;99.90;;;;;;4966397;28;20393;-75
2023/12/10 04:18:53;;;;;;;73.68;53.75;;;5.80;99.90;;;;;;4966104;28;20504;-75
2023/12/10 04:21:20;;;;;;;72.05;53.58;;;5.80;99.90;;;;;;4952835;28;20051;-75
2023/12/10 04:23:46;;;;;;;78.57;55.35;;;5.80;99.90;;;;;;4954827;28;20030;-74
2023/12/10 04:26:12;;;;;;;83.07;57.30;;;5.90;99.90;;;;;;4965252;28;20022;-74
2023/12/10 04:28:41;;;;;;;78.80;56.45;;;5.90;99.90;;;;;;4965363;28;20074;-74
2023/12/10 04:31:07;;;;;;;77.07;54.67;;;6.00;99.90;;;;;;4965660;28;20122;-75
2023/12/10 04:33:33;;;;;;;85.35;58.85;;;6.00;99.90;;;;;;4968481;28;20118;-75
2023/12/10 04:35:59;;;;;;;77.25;55.08;;;6.00;99.90;;;;;;4964124;28;20385;-74
2023/12/10 04:38:25;;;;;;;78.75;55.92;;;6.00;99.90;;;;;;4969019;28;20027;-74
2023/12/10 04:40:51;;;;;;;81.75;56.38;;;6.00;99.90;;;;;;4963697;28;20042;-74
2023/12/10 04:43:16;;;;;;;78.82;55.10;;;6.00;99.90;;;;;;4965020;28;20031;-74
2023/12/10 04:45:42;;;;;;;78.88;57.50;;;5.90;99.90;;;;;;4946951;28;20048;-74
2023/12/10 04:48:08;;;;;;;81.57;56.53;;;5.90;99.90;;;;;;4969832;28;20050;-74
2023/12/10 04:50:34;;;;;;;77.55;55.88;;;6.00;99.90;;;;;;4964998;28;20033;-74
2023/12/10 04:52:59;;;;;;;81.95;55.60;;;6.00;99.90;;;;;;4967646;28;20034;-74
2023/12/10 04:55:25;;;;;;;80.57;56.17;;;6.00;99.90;;;;;;4945275;28;20227;-74
2023/12/10 04:57:50;;;;;;;72.95;53.30;;;5.90;99.90;;;;;;4952109;28;20122;-74
2023/12/10 05:00:16;;;;;;;80.60;55.05;;;6.00;99.90;;;;;;4945379;28;20024;-75
2023/12/10 05:02:42;;;;;;;72.28;52.05;;;5.90;99.90;;;;;;4970491;28;20053;-75
2023/12/10 05:05:08;;;;;;;76.88;54.45;;;5.80;99.90;;;;;;4961538;28;20024;-74
2023/12/10 05:07:35;;;;;;;76.10;54.25;;;5.70;99.90;;;;;;4971448;28;20046;-75
2023/12/10 05:10:01;;;;;;;76.30;54.05;;;5.60;99.90;;;;;;4948766;29;20425;-74
2023/12/10 05:12:26;;;;;;;81.22;56.80;;;5.60;99.90;;;;;;4966438;28;20081;-75
2023/12/10 05:14:52;;;;;;;76.85;54.35;;;5.50;99.90;;;;;;4945141;28;20586;-74
2023/12/10 05:17:18;;;;;;;77.28;55.15;;;5.50;99.90;;;;;;4965123;28;20106;-75
2023/12/10 05:19:43;;;;;;;76.55;54.83;;;5.40;99.90;;;;;;4946507;28;20118;-75
2023/12/10 05:22:09;;;;;;;74.45;51.10;;;5.50;99.90;;;;;;4963309;28;20035;-75
2023/12/10 05:24:35;;;;;;;82.13;54.72;;;5.40;99.90;;;;;;4964544;28;20023;-74
2023/12/10 05:27:00;;;;;;;77.15;55.05;;;5.40;99.90;;;;;;4965373;28;20482;-75
2023/12/10 05:29:26;;;;;;;64.10;44.80;;;5.40;99.90;;;;;;4964559;28;20023;-75
2023/12/10 05:31:52;;;;;;;63.55;45.97;;;5.30;99.90;;;;;;4966957;28;20094;-75
2023/12/10 05:34:17;;;;;;;62.00;45.47;;;5.30;99.90;;;;;;4966062;28;20027;-74
2023/12/10 05:36:43;;;;;;;64.72;46.13;;;5.20;99.90;;;;;;4968494;28;20102;-75
2023/12/10 05:39:10;;;;;;;66.05;48.17;;;5.20;99.90;;;;;;4967779;28;20046;-75
2023/12/10 05:41:36;;;;;;;66.00;46.15;;;5.20;99.90;;;;;;4962502;28;20066;-75
2023/12/10 05:44:02;;;;;;;62.60;46.15;;;5.10;99.90;;;;;;4964657;28;20023;-75
2023/12/10 05:46:28;;;;;;;68.10;48.25;;;5.00;99.90;;;;;;4969948;28;20014;-75
2023/12/10 05:48:54;;;;;;;66.53;47.95;;;5.00;99.90;;;;;;4969506;28;20089;-75
2023/12/10 05:51:19;;;;;;;68.07;46.22;;;5.00;99.90;;;;;;4969068;28;20018;-75
2023/12/10 05:53:45;;;;;;;65.40;45.90;;;4.80;99.90;;;;;;4966324;28;20037;-74
2023/12/10 05:56:11;;;;;;;70.43;50.88;;;4.60;99.90;;;;;;4967589;28;20393;-74
2023/12/10 05:58:37;;;;;;;69.90;51.88;;;4.60;99.90;;;;;;4968727;28;20027;-75
2023/12/10 06:01:02;;;;;;;70.35;51.33;;;4.70;99.90;;;;;;4966468;28;20159;-75
2023/12/10 06:03:28;;;;;;;64.07;49.85;;;4.70;99.90;;;;;;4970500;28;20105;-74
2023/12/10 06:05:54;;;;;;;60.53;46.58;;;4.70;99.90;;;;;;4964777;28;20019;-75
2023/12/10 06:08:20;;;;;;;54.10;42.63;;;4.70;99.90;;;;;;4966296;28;20019;-75
2023/12/10 06:10:46;;;;;;;55.20;41.88;;;4.80;99.90;;;;;;4965856;28;20050;-75
2023/12/10 06:13:11;;;;;;;49.03;40.50;;;4.80;99.90;;;;;;4967463;28;20027;-74
2023/12/10 06:15:37;;;;;;;55.08;43.85;;;4.80;99.90;;;;;;4949537;28;20026;-75
2023/12/10 06:18:03;;;;;;;64.90;47.90;;;4.70;99.90;;;;;;4970189;28;20011;-75
2023/12/10 06:20:29;;;;;;;57.97;45.85;;;4.70;99.90;;;;;;4967348;28;20023;-75
2023/12/10 06:22:55;;;;;;;61.60;48.00;;;4.70;99.90;;;;;;4968218;28;20023;-75
2023/12/10 06:25:20;;;;;;;60.30;49.53;;;4.60;99.90;;;;;;4966501;28;20384;-75
2023/12/10 06:27:46;;;;;;;61.83;48.67;;;4.60;99.90;;;;;;4971839;28;20030;-75
2023/12/10 06:30:12;;;;;;;67.45;52.88;;;4.50;99.90;;;;;;4966130;28;20110;-75
2023/12/10 06:32:38;;;;;;;66.50;52.95;;;4.50;99.90;;;;;;4967122;28;20465;-75
2023/12/10 06:35:04;;;;;;;52.05;45.03;;;4.50;99.90;;;;;;4949959;28;20028;-74
2023/12/10 06:37:31;;;;;;;55.42;45.85;;;4.60;99.90;;;;;;4969317;28;20028;-75
2023/12/10 06:39:57;;;;;;;53.60;44.05;;;4.60;99.90;;;;;;4967054;28;20027;-75
2023/12/10 06:42:23;;;;;;;50.80;43.10;;;4.60;99.90;;;;;;4954568;28;20073;-75
2023/12/10 06:44:49;;;;;;;58.80;47.50;;;4.50;99.90;;;;;;4963798;28;20461;-75
2023/12/10 06:47:14;;;;;;;52.05;43.95;;;4.50;99.90;;;;;;4970993;28;20027;-75
2023/12/10 06:49:40;;;;;;;59.45;46.85;;;4.40;99.90;;;;;;4964729;28;20037;-75
2023/12/10 06:52:06;;;;;;;54.78;46.83;;;4.40;99.90;;;;;;4966278;28;20061;-75
2023/12/10 06:54:31;;;;;;;55.40;46.13;;;4.40;99.90;;;;;;4950506;28;20042;-75
2023/12/10 06:56:57;;;;;;;50.25;43.10;;;4.40;99.90;;;;;;4968378;28;20038;-75
2023/12/10 06:59:23;;;;;;;52.08;44.80;;;4.50;99.90;;;;;;4945420;28;20031;-75
2023/12/10 07:01:48;;;;;;;45.35;40.33;;;4.50;99.90;;;;;;4968527;28;20065;-74
2023/12/10 07:04:14;;;;;;;46.28;40.42;;;4.50;99.90;;;;;;4963658;28;20474;-75
2023/12/10 07:06:40;;;;;;;46.63;40.42;;;4.50;99.90;;;;;;4950986;28;20137;-75
2023/12/10 07:09:06;;;;;;;41.15;36.78;;;4.50;99.90;;;;;;4968407;28;20030;-75
2023/12/10 07:11:33;;;;;;;42.00;37.65;;;4.40;99.90;;;;;;4968144;28;20113;-74
2023/12/10 07:13:58;;;;;;;43.67;39.08;;;4.50;99.90;;;;;;4970472;28;20030;-75
2023/12/10 07:16:24;;;;;;;42.80;38.25;;;4.50;99.90;;;;;;4965947;28;20038;-75
2023/12/10 07:18:50;;;;;;;41.45;36.67;;;4.40;99.90;;;;;;4966345;28;20504;-75
2023/12/10 07:21:15;;;;;;;39.28;35.13;;;4.40;99.90;;;;;;4949049;28;20034;-75
2023/12/10 07:23:41;;;;;;;42.63;38.08;;;4.40;99.90;;;;;;4952016;28;20397;-74
2023/12/10 07:26:07;;;;;;;58.95;47.20;;;4.40;99.90;;;;;;4964684;28;20023;-74
2023/12/10 07:28:33;;;;;;;61.63;46.28;;;4.20;99.90;;;;;;4969513;28;20046;-75
2023/12/10 07:30:58;;;;;;;47.15;41.97;;;4.10;99.90;;;;;;4945319;29;20019;-75
2023/12/10 07:33:24;;;;;;;48.33;40.83;;;4.10;99.90;;;;;;4966314;28;20413;-74
2023/12/10 07:35:51;;;;;;;43.60;38.15;;;4.10;99.90;;;;;;4963255;28;20110;-74
2023/12/10 07:38:17;;;;;;;41.97;37.22;;;4.20;99.90;;;;;;4970593;28;20545;-75
2023/12/10 07:40:42;;;;;;;39.58;35.28;;;4.20;99.90;;;;;;4965875;28;20441;-75
2023/12/10 07:43:08;;;;;;;41.83;37.25;;;4.30;99.90;;;;;;4965203;28;20038;-75
2023/12/10 07:45:34;;;;;;;38.97;34.72;;;4.30;99.90;;;;;;4964884;28;20023;-75
2023/12/10 07:48:00;;;;;;;38.45;34.30;;;4.40;99.90;;;;;;4947695;28;20032;-75
2023/12/10 07:50:25;;;;;;;37.95;33.97;;;4.50;99.90;;;;;;4948262;28;20027;-75
2023/12/10 07:52:51;;;;;;;41.97;37.50;;;4.50;99.90;;;;;;4950618;28;20027;-75
2023/12/10 07:55:17;;;;;;;50.00;43.53;;;4.50;99.90;;;;;;4961424;28;20429;-75
2023/12/10 07:57:44;;;;;;;50.08;44.30;;;4.50;99.90;;;;;;4965028;28;20057;-75
2023/12/10 08:00:10;;;;;;;50.05;44.63;;;4.50;99.90;;;;;;4963479;28;20090;-75
2023/12/10 08:02:36;;;;;;;55.90;48.40;;;4.50;99.90;;;;;;4966900;28;20061;-75
2023/12/10 08:05:03;;;;;;;54.38;47.72;;;4.60;99.90;;;;;;4947497;28;20062;-74
2023/12/10 08:07:29;;;;;;;56.45;49.10;;;4.60;99.90;;;;;;4962066;28;20047;-75
2023/12/10 08:09:55;;;;;;;52.50;45.15;;;4.60;99.90;;;;;;4965744;28;20390;-74
2023/12/10 08:12:21;;;;;;;46.22;40.50;;;4.60;99.90;;;;;;4964058;28;20515;-74
2023/12/10 08:14:47;;;;;;;40.30;35.97;;;4.70;99.90;;;;;;4962555;28;20063;-75
2023/12/10 08:17:12;;;;;;;41.33;36.88;;;4.70;99.90;;;;;;4965674;28;20030;-75
2023/12/10 08:19:38;;;;;;;41.58;36.92;;;4.70;99.90;;;;;;4963336;28;20027;-75
2023/12/10 08:22:07;;;;;;;40.75;36.45;;;4.80;99.90;;;;;;4969302;28;20046;-75
2023/12/10 08:24:33;;;;;;;42.20;37.70;;;4.90;99.90;;;;;;4967085;28;20481;-75
2023/12/10 08:27:19;;;;;;;42.53;37.92;;;4.90;99.90;;;;;;4951244;28;20489;-75
2023/12/10 08:29:45;;;;;;;40.25;35.92;;;5.00;99.90;;;;;;4963657;28;20023;-75
2023/12/10 08:32:12;;;;;;;37.90;33.90;;;5.00;99.90;;;;;;4949291;28;20036;-75
2023/12/10 08:34:38;;;;;;;36.83;32.70;;;5.10;99.90;;;;;;4961107;28;20049;-75
2023/12/10 08:37:04;;;;;;;33.47;29.98;;;5.10;99.90;;;;;;4948257;28;20050;-74
2023/12/10 08:39:30;;;;;;;32.22;28.83;;;5.20;99.90;;;;;;4966577;28;20031;-75
2023/12/10 08:41:56;;;;;;;36.15;32.45;;;5.20;99.90;;;;;;4962864;28;20660;-75
2023/12/10 08:44:21;;;;;;;37.30;33.22;;;5.20;99.90;;;;;;4961870;28;20038;-75
2023/12/10 08:46:47;;;;;;;41.45;37.00;;;5.30;99.90;;;;;;4964578;28;20110;-75
2023/12/10 08:49:13;;;;;;;36.00;31.45;;;5.30;99.90;;;;;;4948717;28;20027;-75
2023/12/10 08:51:38;;;;;;;39.63;35.33;;;5.40;99.90;;;;;;4970296;28;20538;-75
2023/12/10 08:54:04;;;;;;;37.78;33.72;;;5.40;99.90;;;;;;4962204;28;20037;-74
2023/12/10 08:56:30;;;;;;;33.95;30.50;;;5.50;99.90;;;;;;4966677;28;20123;-77
2023/12/10 08:58:55;;;;;;;26.63;24.05;;;5.50;99.90;;;;;;4960957;28;20033;-77
2023/12/10 09:01:21;;;;;;;26.45;23.67;;;5.60;99.90;;;;;;4967527;28;20460;-77
2023/12/10 09:03:47;;;;;;;31.48;28.40;;;5.60;99.90;;;;;;4946186;28;20489;-77
2023/12/10 09:06:13;;;;;;;34.40;27.88;;;5.70;99.90;;;;;;4963528;28;20042;-77
2023/12/10 09:08:39;;;;;;;36.78;33.03;;;5.70;99.90;;;;;;4966311;28;20424;-77
2023/12/10 09:11:05;;;;;;;44.78;37.42;;;5.80;99.90;;;;;;4959041;28;20050;-77
2023/12/10 09:13:37;;;;;;;50.22;44.30;;;5.90;99.90;;;;;;4959024;28;20041;-77
2023/12/10 09:16:03;;;;;;;55.63;46.83;;;6.00;99.90;;;;;;4957993;28;20092;-75
2023/12/10 09:18:29;;;;;;;56.13;46.95;;;6.10;99.90;;;;;;4968161;28;20034;-75
2023/12/10 09:20:55;;;;;;;58.47;48.30;;;6.10;99.90;;;;;;4970661;28;20166;-75
2023/12/10 09:23:21;;;;;;;58.13;48.97;;;6.10;99.90;;;;;;4967522;28;20027;-75
2023/12/10 09:25:48;;;;;;;59.42;49.63;;;6.10;99.90;;;;;;4974655;28;20035;-75
2023/12/10 09:28:13;;;;;;;59.42;49.65;;;6.20;99.90;;;;;;4975300;28;20489;-74
2023/12/10 09:30:39;;;;;;;52.92;47.15;;;6.20;99.90;;;;;;4955457;28;20034;-74
2023/12/10 09:33:05;;;;;;;57.65;47.67;;;6.30;99.90;;;;;;4961943;28;20086;-74
2023/12/10 09:35:31;;;;;;;57.35;47.65;;;6.30;99.90;;;;;;4957256;28;20040;-74
2023/12/10 09:37:57;;;;;;;53.53;44.92;;;6.30;99.90;;;;;;4952702;28;20039;-74
2023/12/10 09:40:23;;;;;;;58.03;46.92;;;6.40;99.90;;;;;;4966374;28;20746;-75
2023/12/10 09:42:49;;;;;;;55.80;47.28;;;6.40;99.90;;;;;;4969469;28;20027;-75
2023/12/10 09:45:14;;;;;;;58.50;48.35;;;6.40;99.90;;;;;;4974372;28;20081;-74
2023/12/10 09:47:43;;;;;;;58.15;48.13;;;6.40;99.90;;;;;;4975041;28;20026;-75
2023/12/10 09:50:09;;;;;;;53.22;45.10;;;6.40;99.90;;;;;;4975868;28;20023;-74
2023/12/10 09:52:35;;;;;;;51.58;43.30;;;6.60;99.90;;;;;;4966915;28;20034;-74
2023/12/10 09:55:01;;;;;;;56.67;43.40;;;6.70;99.90;;;;;;4972325;28;20041;-74
2023/12/10 09:57:30;;;;;;;53.22;44.90;;;6.80;99.90;;;;;;4981103;28;20027;-75
2023/12/10 09:59:56;;;;;;;49.97;43.28;;;6.90;99.90;;;;;;4972698;28;20027;-74
2023/12/10 10:02:33;;;;;;;43.10;36.03;;;7.00;99.90;;;;;;4959969;28;20089;-75
2023/12/10 10:05:00;;;;;;;39.28;35.08;;;7.10;99.90;;;;;;4973369;28;20086;-74
2023/12/10 10:07:28;;;;;;;36.88;32.92;;;7.10;99.90;;;;;;4972467;28;20046;-74
2023/12/10 10:09:54;;;;;;;36.08;32.13;;;7.20;99.90;;;;;;4958481;28;20027;-75
2023/12/10 10:12:20;;;;;;;36.92;33.00;;;7.20;99.90;;;;;;4959335;28;20023;-74
2023/12/10 10:14:56;;;;;;;36.72;32.92;;;7.20;99.90;;;;;;4975730;28;20066;-75
2023/12/10 10:17:34;;;;;;;35.45;31.95;;;7.20;99.90;;;;;;4972573;28;20023;-75
2023/12/10 10:20:00;;;;;;;33.40;30.10;;;7.30;99.90;;;;;;4970248;28;20556;-72
2023/12/10 10:22:27;;;;;;;32.47;28.30;;;7.30;99.90;;;;;;4954674;28;20114;-72
2023/12/10 10:24:53;;;;;;;33.33;29.90;;;7.30;99.90;;;;;;4968325;28;20026;-73
2023/12/10 10:27:20;;;;;;;31.40;28.40;;;7.30;99.90;;;;;;4963950;28;20022;-72
2023/12/10 10:29:48;;;;;;;30.70;27.55;;;7.30;99.90;;;;;;4972381;28;20043;-75
2023/12/10 10:32:18;;;;;;;32.10;29.00;;;7.40;99.90;;;;;;4972220;28;20058;-75
2023/12/10 10:34:45;;;;;;;31.50;28.40;;;7.40;99.90;;;;;;4972997;28;20088;-74
2023/12/10 10:37:11;;;;;;;32.65;29.38;;;7.50;99.90;;;;;;4975592;28;20022;-74
2023/12/10 10:39:37;;;;;;;29.05;26.13;;;7.50;99.90;;;;;;4967948;28;20085;-74
2023/12/10 10:42:07;;;;;;;32.47;28.40;;;7.60;99.90;;;;;;4974863;28;20069;-74
2023/12/10 10:44:42;;;;;;;32.85;29.45;;;7.70;99.90;;;;;;4963439;28;20027;-74
2023/12/10 10:47:08;;;;;;;31.75;28.45;;;7.70;99.90;;;;;;4975132;28;20113;-74
2023/12/10 10:49:45;;;;;;;32.25;28.98;;;7.70;99.90;;;;;;4974914;28;20463;-74
2023/12/10 10:52:20;;;;;;;31.45;28.10;;;7.80;99.90;;;;;;4972012;28;20069;-74
2023/12/10 10:54:46;;;;;;;32.83;29.23;;;7.70;99.90;;;;;;4971448;28;20030;-75
2023/12/10 10:57:12;;;;;;;34.55;30.45;;;7.80;99.90;;;;;;4967055;28;20445;-77
2023/12/10 10:59:38;;;;;;;32.55;29.15;;;7.80;99.90;;;;;;4965321;28;20039;-77
2023/12/10 11:02:09;;;;;;;31.90;28.50;;;7.80;99.90;;;;;;4970465;28;20034;-77
2023/12/10 11:04:39;;;;;;;33.67;30.30;;;7.80;99.90;;;;;;4965886;28;20512;-77
2023/12/10 11:07:06;;;;;;;31.35;27.63;;;7.80;99.90;;;;;;4967147;28;20037;-76
2023/12/10 11:09:34;;;;;;;36.65;32.55;;;7.90;99.90;;;;;;4950464;28;20039;-77
2023/12/10 11:11:59;;;;;;;33.10;29.17;;;8.00;99.90;;;;;;4969323;28;20500;-76
2023/12/10 11:14:28;;;;;;;33.40;29.77;;;8.00;99.90;;;;;;4965186;28;20031;-76
2023/12/10 11:17:02;;;;;;;33.78;28.40;;;8.10;99.90;;;;;;4963764;28;20365;-76
2023/12/10 11:19:32;;;;;;;32.92;29.45;;;8.10;99.90;;;;;;4955128;28;20486;-76
2023/12/10 11:21:59;;;;;;;32.58;27.27;;;8.20;99.90;;;;;;4968664;28;20022;-76
2023/12/10 11:24:25;;;;;;;33.30;29.92;;;8.30;99.90;;;;;;4963776;28;20027;-76
2023/12/10 11:26:51;;;;;;;32.25;28.95;;;8.30;99.90;;;;;;4969475;28;20022;-76
2023/12/10 11:29:17;;;;;;;32.95;29.35;;;8.40;99.90;;;;;;4962613;28;20030;-76
2023/12/10 11:31:46;;;;;;;34.28;30.67;;;8.40;99.90;;;;;;4965399;28;20029;-76
2023/12/10 11:34:12;;;;;;;33.72;29.58;;;8.40;99.90;;;;;;4965847;28;20105;-76
2023/12/10 11:36:38;;;;;;;36.20;32.17;;;8.50;99.90;;;;;;4966675;28;20059;-77
2023/12/10 11:39:10;;;;;;;36.13;31.25;;;8.60;99.90;;;;;;4950177;29;20114;-76
2023/12/10 11:41:38;;;;;;;37.30;32.08;;;8.70;99.90;;;;;;4942713;29;20031;-77
2023/12/10 11:44:04;;;;;;;37.58;31.83;;;8.70;99.90;;;;;;4962291;28;20497;-77
2023/12/10 11:46:29;;;;;;;40.50;35.15;;;8.80;99.90;;;;;;4967177;28;20050;-76
2023/12/10 11:48:56;;;;;;;43.22;34.35;;;8.90;99.90;;;;;;4961727;28;20023;-77
2023/12/10 11:51:22;;;;;;;41.60;33.38;;;8.90;99.90;;;;;;4965607;28;20034;-76
2023/12/10 11:53:48;;;;;;;45.75;35.80;;;9.00;99.90;;;;;;4965649;28;20019;-76
2023/12/10 11:56:14;;;;;;;41.67;35.35;;;9.00;99.90;;;;;;4947883;28;20456;-77
2023/12/10 11:58:44;;;;;;;43.80;33.42;;;9.10;99.90;;;;;;4962447;28;20123;-77
2023/12/10 12:01:13;;;;;;;41.22;34.90;;;9.10;99.90;;;;;;4965364;28;20465;-77
2023/12/10 12:03:39;;;;;;;44.72;38.38;;;9.10;99.90;;;;;;4969463;28;20210;-76
2023/12/10 12:06:04;;;;;;;49.97;40.30;;;9.10;99.90;;;;;;4965163;28;20536;-76
2023/12/10 12:08:31;;;;;;;52.70;41.35;;;9.10;99.90;;;;;;4965995;28;20019;-76
2023/12/10 12:10:58;;;;;;;51.53;42.00;;;9.10;99.90;;;;;;4969026;28;20050;-77
2023/12/10 12:13:24;;;;;;;48.03;39.25;;;9.10;99.90;;;;;;4975880;28;20043;-76
2023/12/10 12:15:51;;;;;;;49.83;41.10;;;9.10;99.90;;;;;;4962508;28;20074;-77
2023/12/10 12:18:16;;;;;;;50.28;41.20;;;9.10;99.90;;;;;;4965041;28;20031;-77
2023/12/10 12:20:44;;;;;;;50.00;41.20;;;9.00;99.90;;;;;;4962022;28;20458;-76
2023/12/10 12:23:09;;;;;;;50.00;40.85;;;9.00;99.90;;;;;;4966112;28;20394;-76
2023/12/10 12:25:37;;;;;;;50.92;41.58;;;9.00;99.90;;;;;;4964423;28;20038;-76
2023/12/10 12:28:07;;;;;;;50.53;43.60;;;9.00;99.90;;;;;;4966603;28;20267;-77
2023/12/10 12:30:36;;;;;;;52.33;41.20;;;9.00;99.90;;;;;;4965453;28;20074;-77
2023/12/10 12:33:03;;;;;;;53.47;40.17;;;9.00;99.90;;;;;;4968231;28;20054;-77
2023/12/10 12:35:29;;;;;;;52.20;41.38;;;9.00;99.90;;;;;;4963131;28;20062;-77